createdAt,value
2023-02-26T00:01:38.070Z,93.50
2023-02-26T00:04:06.779Z,93.70
2023-02-26T00:06:36.520Z,93.20
2023-02-26T00:09:05.516Z,93.60
2023-02-26T00:11:33.496Z,94.70
2023-02-26T00:14:01.069Z,94.30
2023-02-26T00:16:34.171Z,94.70
2023-02-26T00:19:04.974Z,94.80
2023-02-26T00:21:33.029Z,94.80
2023-02-26T00:24:03.062Z,95.10
2023-02-26T00:26:32.058Z,95.30
2023-02-26T00:28:59.633Z,95.80
2023-02-26T00:31:27.027Z,96.00
2023-02-26T00:33:55.762Z,96.50
2023-02-26T00:36:28.478Z,96.40
2023-02-26T00:39:14.391Z,96.50
2023-02-26T00:41:41.872Z,96.60
2023-02-26T00:44:09.140Z,96.80
2023-02-26T00:46:52.695Z,97.20
2023-02-26T00:49:47.397Z,97.10
2023-02-26T00:52:27.901Z,97.10
2023-02-26T00:54:55.048Z,96.90
2023-02-26T00:57:22.001Z,96.80
2023-02-26T00:59:49.024Z,96.90
2023-02-26T01:02:16.082Z,97.20
2023-02-26T01:04:43.482Z,97.50
2023-02-26T01:07:11.209Z,97.90
2023-02-26T01:09:38.887Z,98.20
2023-02-26T01:12:13.964Z,98.30
2023-02-26T01:14:41.885Z,98.00
2023-02-26T01:17:32.324Z,98.10
2023-02-26T01:20:12.210Z,97.90
2023-02-26T01:22:42.571Z,98.10
2023-02-26T01:25:12.687Z,97.90
2023-02-26T01:27:39.933Z,97.30
2023-02-26T01:30:08.094Z,97.30
2023-02-26T01:33:05.147Z,97.20
2023-02-26T01:36:01.470Z,97.50
2023-02-26T01:39:05.243Z,97.30
2023-02-26T01:41:40.881Z,97.40
2023-02-26T01:44:08.399Z,97.10
2023-02-26T01:47:10.981Z,95.90
2023-02-26T01:49:40.696Z,95.00
2023-02-26T01:52:45.978Z,95.20
2023-02-26T01:55:14.398Z,95.20
2023-02-26T01:57:41.535Z,95.40
2023-02-26T02:00:09.581Z,95.30
2023-02-26T02:02:39.602Z,93.70
2023-02-26T02:05:17.905Z,92.90
2023-02-26T02:07:46.593Z,92.20
2023-02-26T02:10:13.736Z,91.40
2023-02-26T02:13:05.671Z,91.50
2023-02-26T02:15:45.298Z,90.60
2023-02-26T02:18:33.895Z,90.60
2023-02-26T02:21:10.220Z,90.30
2023-02-26T02:23:45.375Z,89.40
2023-02-26T02:26:37.616Z,89.80
2023-02-26T02:29:32.086Z,89.90
2023-02-26T02:32:10.276Z,89.60
2023-02-26T02:34:40.389Z,89.00
2023-02-26T02:37:25.562Z,89.00
2023-02-26T02:40:08.001Z,89.60
2023-02-26T02:42:37.057Z,88.20
2023-02-26T02:45:10.901Z,87.70
2023-02-26T02:47:41.619Z,86.80
2023-02-26T02:50:14.780Z,87.20
2023-02-26T02:52:47.071Z,86.60
2023-02-26T02:55:21.610Z,86.60
2023-02-26T02:58:01.867Z,86.50
2023-02-26T03:00:34.858Z,86.20
2023-02-26T03:03:28.000Z,86.10
2023-02-26T03:05:56.135Z,85.90
2023-02-26T03:08:28.069Z,86.50
2023-02-26T03:10:55.041Z,86.50
2023-02-26T03:13:26.048Z,86.40
2023-02-26T03:16:20.943Z,87.10
2023-02-26T03:19:26.432Z,85.80
2023-02-26T03:22:25.225Z,86.50
2023-02-26T03:25:25.455Z,86.70
2023-02-26T03:27:59.203Z,86.90
2023-02-26T03:30:45.954Z,87.50
2023-02-26T03:33:16.338Z,87.60
2023-02-26T03:35:55.168Z,88.00
2023-02-26T03:38:47.227Z,88.50
2023-02-26T03:41:20.137Z,87.30
2023-02-26T03:43:55.425Z,87.50
2023-02-26T03:46:29.986Z,87.60
2023-02-26T03:49:01.445Z,87.20
2023-02-26T03:51:30.536Z,87.80
2023-02-26T03:54:20.913Z,87.40
2023-02-26T03:56:56.567Z,87.40
2023-02-26T03:59:49.876Z,87.80
2023-02-26T04:03:08.707Z,87.60
2023-02-26T04:05:43.160Z,88.20
2023-02-26T04:08:10.451Z,87.00
2023-02-26T04:10:42.770Z,87.30
2023-02-26T04:13:09.863Z,88.00
2023-02-26T04:15:37.566Z,87.90
2023-02-26T04:18:05.216Z,85.40
2023-02-26T04:20:32.367Z,84.40
2023-02-26T04:23:00.248Z,84.80
2023-02-26T04:25:27.281Z,83.40
2023-02-26T04:27:55.457Z,83.00
2023-02-26T04:30:22.965Z,82.50
2023-02-26T04:32:50.066Z,81.80
2023-02-26T04:35:17.272Z,81.10
2023-02-26T04:37:44.517Z,79.20
2023-02-26T04:40:12.143Z,79.70
2023-02-26T04:42:39.367Z,78.10
2023-02-26T04:45:06.892Z,79.00
2023-02-26T04:47:39.448Z,79.20
2023-02-26T04:50:08.210Z,79.90
2023-02-26T04:52:35.499Z,80.00
2023-02-26T04:55:02.858Z,79.50
2023-02-26T04:57:29.914Z,79.40
2023-02-26T04:59:56.997Z,79.10
2023-02-26T05:02:28.260Z,81.20
2023-02-26T05:04:55.296Z,81.30
2023-02-26T05:07:22.263Z,81.50
2023-02-26T05:09:49.939Z,79.60
2023-02-26T05:12:17.273Z,80.30
2023-02-26T05:14:44.246Z,80.80
2023-02-26T05:17:11.615Z,79.70
2023-02-26T05:19:38.825Z,80.50
2023-02-26T05:22:05.886Z,79.70
2023-02-26T05:24:33.147Z,80.00
2023-02-26T05:27:00.763Z,80.80
2023-02-26T05:29:29.046Z,80.70
2023-02-26T05:31:57.449Z,80.30
2023-02-26T05:34:24.533Z,80.20
2023-02-26T05:36:51.563Z,80.60
2023-02-26T05:39:18.507Z,80.20
2023-02-26T05:41:46.571Z,81.00
2023-02-26T05:44:13.746Z,81.70
2023-02-26T05:46:40.798Z,80.10
2023-02-26T05:49:07.820Z,80.90
2023-02-26T05:51:35.339Z,79.70
2023-02-26T05:54:02.293Z,79.20
2023-02-26T05:56:29.285Z,79.80
2023-02-26T05:58:56.323Z,80.30
2023-02-26T06:01:23.472Z,80.30
2023-02-26T06:03:50.446Z,80.70
2023-02-26T06:06:18.599Z,79.80
2023-02-26T06:08:46.244Z,79.90
2023-02-26T06:11:13.897Z,79.60
2023-02-26T06:13:40.999Z,80.00
2023-02-26T06:16:08.195Z,80.00
2023-02-26T06:18:35.193Z,80.60
2023-02-26T06:21:02.530Z,81.80
2023-02-26T06:23:29.563Z,80.60
2023-02-26T06:25:56.581Z,80.10
2023-02-26T06:28:24.680Z,80.00
2023-02-26T06:30:53.465Z,80.70
2023-02-26T06:33:20.558Z,81.70
2023-02-26T06:35:47.941Z,82.60
2023-02-26T06:38:14.977Z,81.20
2023-02-26T06:40:42.348Z,81.90
2023-02-26T06:43:09.581Z,81.60
2023-02-26T06:45:37.365Z,82.80
2023-02-26T06:48:04.486Z,80.90
2023-02-26T06:50:31.670Z,80.00
2023-02-26T06:52:58.750Z,80.60
2023-02-26T06:55:27.035Z,80.40
2023-02-26T06:57:58.303Z,79.70
2023-02-26T07:00:26.667Z,80.70
2023-02-26T07:02:53.940Z,80.00
2023-02-26T07:05:23.335Z,80.90
2023-02-26T07:07:50.318Z,80.40
2023-02-26T07:10:17.506Z,79.60
2023-02-26T07:12:44.457Z,79.70
2023-02-26T07:15:11.584Z,79.50
2023-02-26T07:17:38.604Z,79.00
2023-02-26T07:20:09.701Z,78.50
2023-02-26T07:22:37.978Z,77.80
2023-02-26T07:25:07.153Z,79.50
2023-02-26T07:27:34.434Z,80.20
2023-02-26T07:30:01.837Z,78.30
2023-02-26T07:32:29.130Z,78.50
2023-02-26T07:34:56.381Z,78.90
2023-02-26T07:37:23.616Z,79.00
2023-02-26T07:39:50.966Z,78.20
2023-02-26T07:42:18.140Z,78.60
2023-02-26T07:44:45.508Z,77.80
2023-02-26T07:47:12.481Z,78.40
2023-02-26T07:49:40.001Z,79.40
2023-02-26T07:52:08.186Z,78.00
2023-02-26T07:54:36.700Z,79.20
2023-02-26T07:57:04.340Z,79.10
2023-02-26T07:59:31.532Z,79.10
2023-02-26T08:01:59.523Z,79.40
2023-02-26T08:04:26.591Z,79.80
2023-02-26T08:06:57.389Z,78.00
2023-02-26T08:09:24.422Z,76.80
2023-02-26T08:11:51.433Z,78.10
2023-02-26T08:14:18.719Z,76.40
2023-02-26T08:16:45.860Z,77.50
2023-02-26T08:19:12.857Z,76.80
2023-02-26T08:21:39.820Z,75.20
2023-02-26T08:24:07.089Z,73.40
2023-02-26T08:26:37.785Z,74.50
2023-02-26T08:29:05.481Z,75.20
2023-02-26T08:31:34.682Z,73.50
2023-02-26T08:34:02.074Z,74.70
2023-02-26T08:36:29.735Z,72.90
2023-02-26T08:38:56.777Z,72.90
2023-02-26T08:41:24.121Z,71.30
2023-02-26T08:43:51.451Z,70.50
2023-02-26T08:46:19.141Z,67.80
2023-02-26T08:48:46.244Z,68.10
2023-02-26T08:51:13.261Z,69.30
2023-02-26T08:53:40.430Z,68.00
2023-02-26T08:56:07.656Z,69.40
2023-02-26T08:58:34.652Z,68.40
2023-02-26T09:01:01.648Z,62.80
2023-02-26T09:03:28.735Z,64.50
2023-02-26T09:05:55.988Z,63.90
2023-02-26T09:08:23.014Z,63.90
2023-02-26T09:10:50.080Z,61.80
2023-02-26T09:13:17.197Z,59.20
2023-02-26T09:15:44.391Z,57.40
2023-02-26T09:18:15.649Z,56.10
2023-02-26T09:20:44.482Z,56.80
2023-02-26T09:23:12.639Z,51.30
2023-02-26T09:25:39.882Z,47.40
2023-02-26T09:28:06.980Z,45.10
2023-02-26T09:30:34.066Z,47.60
2023-02-26T09:33:01.091Z,42.60
2023-02-26T09:35:28.222Z,43.40
2023-02-26T09:37:55.226Z,43.60
2023-02-26T09:40:43.721Z,44.20
2023-02-26T09:43:48.765Z,39.60
2023-02-26T09:46:42.406Z,39.10
2023-02-26T09:49:30.921Z,34.60
2023-02-26T09:52:35.661Z,36.50
2023-02-26T09:55:10.185Z,32.40
2023-02-26T09:57:41.892Z,32.50
2023-02-26T10:00:23.215Z,26.80
2023-02-26T10:03:32.073Z,25.30
2023-02-26T10:06:21.986Z,22.70
2023-02-26T10:08:59.649Z,23.80
2023-02-26T10:11:57.725Z,16.90
2023-02-26T10:14:36.023Z,19.20
2023-02-26T10:17:29.001Z,17.40
2023-02-26T10:20:03.001Z,16.20
2023-02-26T10:23:01.927Z,16.60
2023-02-26T10:26:12.613Z,14.40
2023-02-26T10:28:59.409Z,11.10
2023-02-26T10:31:45.333Z,13.10
2023-02-26T10:34:44.894Z,12.30
2023-02-26T10:37:38.784Z,13.60
2023-02-26T10:40:34.097Z,13.20
2023-02-26T10:43:19.796Z,13.40
2023-02-26T10:45:53.006Z,15.50
2023-02-26T10:48:42.632Z,11.90
2023-02-26T10:51:19.182Z,8.80
2023-02-26T10:53:59.928Z,6.80
2023-02-26T10:56:30.712Z,6.10
2023-02-26T10:58:57.925Z,4.90
2023-02-26T11:01:28.814Z,5.30
2023-02-26T11:04:12.541Z,4.50
2023-02-26T11:06:45.732Z,3.60
2023-02-26T11:09:44.569Z,2.40
2023-02-26T11:12:11.501Z,2.80
2023-02-26T11:14:39.002Z,2.10
2023-02-26T11:17:19.467Z,1.00
2023-02-26T11:20:24.934Z,2.80
2023-02-26T11:22:58.286Z,1.00
2023-02-26T11:25:29.628Z,1.00
2023-02-26T11:28:04.736Z,1.00
2023-02-26T11:30:37.032Z,1.70
2023-02-26T11:33:18.938Z,2.20
2023-02-26T11:35:46.978Z,1.30
2023-02-26T11:38:22.538Z,1.00
2023-02-26T11:40:56.155Z,1.00
2023-02-26T11:43:28.476Z,1.00
2023-02-26T11:45:59.694Z,1.00
2023-02-26T11:48:33.368Z,1.00
2023-02-26T11:51:03.047Z,1.00
2023-02-26T11:53:36.943Z,1.50
2023-02-26T11:56:16.242Z,1.00
2023-02-26T11:58:46.610Z,2.20
2023-02-26T12:01:17.167Z,1.00
2023-02-26T12:03:47.669Z,1.00
2023-02-26T12:06:22.670Z,1.00
2023-02-26T12:08:49.984Z,1.00
2023-02-26T12:11:48.961Z,1.00
2023-02-26T12:14:39.966Z,1.00
2023-02-26T12:17:32.340Z,1.00
2023-02-26T12:20:15.326Z,1.00
2023-02-26T12:22:56.030Z,1.00
2023-02-26T12:26:00.317Z,1.00
2023-02-26T12:28:48.583Z,1.00
2023-02-26T12:31:21.112Z,1.00
2023-02-26T12:34:13.529Z,1.00
2023-02-26T12:36:59.903Z,1.00
2023-02-26T12:40:07.007Z,1.00
2023-02-26T12:43:20.578Z,1.00
2023-02-26T12:46:22.206Z,1.00
2023-02-26T12:49:18.212Z,1.00
2023-02-26T12:52:19.960Z,1.00
2023-02-26T12:55:02.081Z,1.00
2023-02-26T12:58:00.576Z,1.00
2023-02-26T13:00:46.698Z,1.00
2023-02-26T13:03:25.470Z,1.00
2023-02-26T13:06:23.642Z,1.00
2023-02-26T13:09:01.394Z,1.00
2023-02-26T13:11:50.433Z,1.00
2023-02-26T13:14:44.818Z,1.00
2023-02-26T13:17:23.432Z,1.00
2023-02-26T13:19:57.504Z,1.00
2023-02-26T13:22:28.782Z,1.00
2023-02-26T13:25:10.426Z,1.00
2023-02-26T13:27:39.836Z,1.00
2023-02-26T13:30:32.823Z,1.00
2023-02-26T13:33:01.253Z,1.00
2023-02-26T13:35:42.761Z,1.00
2023-02-26T13:38:50.388Z,1.00
2023-02-26T13:41:25.974Z,1.00
2023-02-26T13:44:05.156Z,1.00
2023-02-26T13:47:14.996Z,1.00
2023-02-26T13:49:51.276Z,1.00
2023-02-26T13:52:31.793Z,1.00
2023-02-26T13:54:59.760Z,1.00
2023-02-26T13:57:37.227Z,1.00
2023-02-26T14:00:34.134Z,1.00
2023-02-26T14:03:31.843Z,1.00
2023-02-26T14:06:24.074Z,1.00
2023-02-26T14:08:56.987Z,1.00
2023-02-26T14:11:37.878Z,1.00
2023-02-26T14:14:25.958Z,1.00
2023-02-26T14:17:08.369Z,1.00
2023-02-26T14:19:38.557Z,1.00
2023-02-26T14:22:26.369Z,1.00
2023-02-26T14:25:28.196Z,1.00
2023-02-26T14:28:25.028Z,1.00
2023-02-26T14:31:15.841Z,1.00
2023-02-26T14:34:04.994Z,1.00
2023-02-26T14:36:52.731Z,1.00
2023-02-26T14:39:40.227Z,1.00
2023-02-26T14:42:16.495Z,1.00
2023-02-26T14:44:48.410Z,1.00
2023-02-26T14:47:16.590Z,1.00
2023-02-26T14:49:46.932Z,1.00
2023-02-26T14:53:04.659Z,1.00
2023-02-26T14:55:47.478Z,1.00
2023-02-26T14:58:36.020Z,1.00
2023-02-26T15:01:24.683Z,1.00
2023-02-26T15:03:57.786Z,1.00
2023-02-26T15:06:30.848Z,1.00
2023-02-26T15:09:04.552Z,1.00
2023-02-26T15:11:41.210Z,1.00
2023-02-26T15:14:35.632Z,1.00
2023-02-26T15:17:23.948Z,1.00
2023-02-26T15:20:23.592Z,1.00
2023-02-26T15:23:27.391Z,1.00
2023-02-26T15:25:57.250Z,1.00
2023-02-26T15:28:37.829Z,1.00
2023-02-26T15:31:07.837Z,1.00
2023-02-26T15:33:35.555Z,1.00
2023-02-26T15:36:12.572Z,1.00
2023-02-26T15:38:48.854Z,1.00
2023-02-26T15:41:17.527Z,1.00
2023-02-26T15:43:51.080Z,1.00
2023-02-26T15:46:22.388Z,1.00
2023-02-26T15:48:49.678Z,1.00
2023-02-26T15:51:19.192Z,1.00
2023-02-26T15:53:49.618Z,1.00
2023-02-26T15:56:24.960Z,1.00
2023-02-26T15:59:01.543Z,1.00
2023-02-26T16:01:36.826Z,1.00
2023-02-26T16:04:12.291Z,1.00
2023-02-26T16:06:48.984Z,1.00
2023-02-26T16:09:39.268Z,1.00
2023-02-26T16:12:12.225Z,1.00
2023-02-26T16:14:43.942Z,1.00
2023-02-26T16:17:16.831Z,1.00
2023-02-26T16:19:48.962Z,1.00
2023-02-26T16:22:24.239Z,1.00
2023-02-26T16:25:16.345Z,1.00
2023-02-26T16:27:43.697Z,1.00
2023-02-26T16:30:20.192Z,1.00
2023-02-26T16:32:54.350Z,1.00
2023-02-26T16:35:24.422Z,1.00
2023-02-26T16:37:55.148Z,1.00
2023-02-26T16:40:56.352Z,1.00
2023-02-26T16:43:23.823Z,1.00
2023-02-26T16:45:56.016Z,1.00
2023-02-26T16:48:33.303Z,1.00
2023-02-26T16:51:13.982Z,1.00
2023-02-26T16:53:58.300Z,1.00
2023-02-26T16:56:29.863Z,1.00
2023-02-26T16:59:23.640Z,1.00
2023-02-26T17:02:19.105Z,1.00
2023-02-26T17:04:50.724Z,1.00
2023-02-26T17:07:29.825Z,1.00
2023-02-26T17:10:00.123Z,1.00
2023-02-26T17:12:46.352Z,1.00
2023-02-26T17:15:21.475Z,1.10
2023-02-26T17:17:49.035Z,2.20
2023-02-26T17:20:16.295Z,3.00
2023-02-26T17:22:45.077Z,3.70
2023-02-26T17:25:20.897Z,4.70
2023-02-26T17:27:49.314Z,5.90
2023-02-26T17:30:20.199Z,6.60
2023-02-26T17:32:47.375Z,7.50
2023-02-26T17:35:16.113Z,7.70
2023-02-26T17:37:45.013Z,8.10
2023-02-26T17:40:36.435Z,9.10
2023-02-26T17:43:04.827Z,9.70
2023-02-26T17:45:35.930Z,11.10
2023-02-26T17:48:04.244Z,10.70
2023-02-26T17:50:43.867Z,11.20
2023-02-26T17:53:11.375Z,11.50
2023-02-26T17:55:39.572Z,12.90
2023-02-26T17:58:30.170Z,12.70
2023-02-26T18:00:57.646Z,13.40
2023-02-26T18:03:26.476Z,14.30
2023-02-26T18:05:55.649Z,14.20
2023-02-26T18:08:29.076Z,14.70
2023-02-26T18:10:57.054Z,14.80
2023-02-26T18:13:24.749Z,15.60
2023-02-26T18:15:52.685Z,16.20
2023-02-26T18:18:21.325Z,16.60
2023-02-26T18:20:49.083Z,17.40
2023-02-26T18:23:16.856Z,17.80
2023-02-26T18:25:48.436Z,17.60
2023-02-26T18:28:28.782Z,19.00
2023-02-26T18:30:57.713Z,18.40
2023-02-26T18:33:25.837Z,19.50
2023-02-26T18:35:56.950Z,19.70
2023-02-26T18:38:27.856Z,20.00
2023-02-26T18:40:55.143Z,20.40
2023-02-26T18:43:22.196Z,20.70
2023-02-26T18:45:50.619Z,21.20
2023-02-26T18:48:20.956Z,21.90
2023-02-26T18:50:49.094Z,23.20
2023-02-26T18:53:17.875Z,24.20
2023-02-26T18:55:45.378Z,25.00
2023-02-26T18:58:13.904Z,25.30
2023-02-26T19:00:41.832Z,25.80
2023-02-26T19:03:12.425Z,26.90
2023-02-26T19:05:41.839Z,27.30
2023-02-26T19:08:08.881Z,28.60
2023-02-26T19:10:37.079Z,29.10
2023-02-26T19:13:05.079Z,30.10
2023-02-26T19:15:32.440Z,31.00
2023-02-26T19:17:59.529Z,31.50
2023-02-26T19:20:27.036Z,32.30
2023-02-26T19:22:54.278Z,32.70
2023-02-26T19:25:24.387Z,33.50
2023-02-26T19:27:55.745Z,34.30
2023-02-26T19:30:24.033Z,34.90
2023-02-26T19:32:51.968Z,35.10
2023-02-26T19:35:19.758Z,34.70
2023-02-26T19:37:47.274Z,35.00
2023-02-26T19:40:19.602Z,33.40
2023-02-26T19:42:47.605Z,33.00
2023-02-26T19:45:15.595Z,33.20
2023-02-26T19:47:43.072Z,32.80
2023-02-26T19:50:14.342Z,33.00
2023-02-26T19:52:41.719Z,33.00
2023-02-26T19:55:09.631Z,34.50
2023-02-26T19:57:36.995Z,34.10
2023-02-26T20:00:05.570Z,33.80
2023-02-26T20:02:39.030Z,34.50
2023-02-26T20:05:07.659Z,34.90
2023-02-26T20:07:35.122Z,35.40
2023-02-26T20:10:02.310Z,35.60
2023-02-26T20:12:30.413Z,35.90
2023-02-26T20:14:57.957Z,36.20
2023-02-26T20:17:25.030Z,36.80
2023-02-26T20:19:52.415Z,36.50
2023-02-26T20:22:22.887Z,36.40
2023-02-26T20:24:50.122Z,36.70
2023-02-26T20:27:17.593Z,37.00
2023-02-26T20:29:44.974Z,37.20
2023-02-26T20:32:12.362Z,37.20
2023-02-26T20:34:39.564Z,37.30
2023-02-26T20:37:06.739Z,38.00
2023-02-26T20:39:36.240Z,37.80
2023-02-26T20:42:06.144Z,38.20
2023-02-26T20:44:33.470Z,39.00
2023-02-26T20:47:02.633Z,40.50
2023-02-26T20:49:30.382Z,41.20
2023-02-26T20:51:58.122Z,42.40
2023-02-26T20:54:25.488Z,44.80
2023-02-26T20:56:52.900Z,45.00
2023-02-26T20:59:20.592Z,45.40
2023-02-26T21:01:48.644Z,45.90
2023-02-26T21:04:15.819Z,46.40
2023-02-26T21:06:43.090Z,47.70
2023-02-26T21:09:11.324Z,49.20
2023-02-26T21:11:39.605Z,49.40
2023-02-26T21:14:08.705Z,50.00
2023-02-26T21:16:37.332Z,51.20
2023-02-26T21:19:04.671Z,51.40
2023-02-26T21:21:32.340Z,50.70
2023-02-26T21:23:59.590Z,51.10
2023-02-26T21:26:27.753Z,51.30
2023-02-26T21:28:55.019Z,49.90
2023-02-26T21:31:22.481Z,50.40
2023-02-26T21:33:49.671Z,50.70
2023-02-26T21:36:17.130Z,51.10
2023-02-26T21:38:45.249Z,50.20
2023-02-26T21:41:12.981Z,51.30
2023-02-26T21:43:40.255Z,51.10
2023-02-26T21:46:07.490Z,51.10
2023-02-26T21:48:34.738Z,51.00
2023-02-26T21:51:02.066Z,50.60
2023-02-26T21:53:29.508Z,50.60
2023-02-26T21:55:58.197Z,52.00
2023-02-26T21:58:25.816Z,51.80
2023-02-26T22:00:53.071Z,51.20
2023-02-26T22:03:20.261Z,51.10
2023-02-26T22:05:54.340Z,51.30
2023-02-26T22:08:21.463Z,52.00
2023-02-26T22:10:48.624Z,50.70
2023-02-26T22:13:16.187Z,50.70
2023-02-26T22:15:43.218Z,49.80
2023-02-26T22:18:10.434Z,49.60
2023-02-26T22:20:37.839Z,51.40
2023-02-26T22:23:05.532Z,53.10
2023-02-26T22:25:33.708Z,55.00
2023-02-26T22:28:00.890Z,56.60
2023-02-26T22:30:28.092Z,57.40
2023-02-26T22:32:55.274Z,57.40
2023-02-26T22:35:22.451Z,58.10
2023-02-26T22:37:49.539Z,58.00
2023-02-26T22:40:16.860Z,58.50
2023-02-26T22:42:44.517Z,59.20
2023-02-26T22:45:13.665Z,59.60
2023-02-26T22:47:40.746Z,61.50
2023-02-26T22:50:07.999Z,62.80
2023-02-26T22:52:34.957Z,64.80
2023-02-26T22:55:01.886Z,67.90
2023-02-26T22:57:28.796Z,69.20
2023-02-26T22:59:55.756Z,70.90
2023-02-26T23:02:22.712Z,72.00
2023-02-26T23:04:49.749Z,75.10
2023-02-26T23:07:17.248Z,79.20
2023-02-26T23:09:44.183Z,79.60
2023-02-26T23:12:11.432Z,79.60
2023-02-26T23:14:38.541Z,79.20
2023-02-26T23:17:05.846Z,79.70
2023-02-26T23:19:32.782Z,79.80
2023-02-26T23:21:59.732Z,79.40
2023-02-26T23:24:26.734Z,79.80
2023-02-26T23:26:53.698Z,80.70
2023-02-26T23:29:20.709Z,82.00
2023-02-26T23:31:47.739Z,82.50
2023-02-26T23:34:14.966Z,83.00
2023-02-26T23:36:42.462Z,83.70
2023-02-26T23:39:09.470Z,84.00
2023-02-26T23:41:36.642Z,84.60
2023-02-26T23:44:03.968Z,84.50
2023-02-26T23:46:31.208Z,84.00
2023-02-26T23:48:59.271Z,85.00
2023-02-26T23:51:26.395Z,84.20
2023-02-26T23:53:53.565Z,84.70
2023-02-26T23:56:20.554Z,85.20
2023-02-26T23:58:47.618Z,84.50
